Time,TemperatureF,DewpointF,PressureIn,WindDirection,WindDirectionDegrees,WindSpeedMPH,WindSpeedGustMPH,Humidity,HourlyPrecipIn,Conditions,Clouds,dailyrainin,SoftwareType,DateUTC
2013-04-13 00:03:00,50.0,50.0,-100.00,North,350,1.0,9.0,99,0.00,,,-99.99,,2013-04-13 04:03:00,
2013-04-13 00:12:00,50.0,50.0,-100.00,NW,320,3.0,11.0,99,0.00,,,-99.99,,2013-04-13 04:12:00,
2013-04-13 00:23:00,50.0,50.0,-100.00,NW,320,3.0,11.0,99,0.00,,,-99.99,,2013-04-13 04:23:00,
2013-04-13 00:33:00,51.0,51.0,-100.00,NW,305,4.0,11.0,99,0.00,,,-99.99,,2013-04-13 04:33:00,
2013-04-13 00:42:00,51.0,51.0,-100.00,NNE,15,2.0,11.0,99,0.00,,,-99.99,,2013-04-13 04:42:00,
2013-04-13 00:53:00,51.0,51.0,-100.00,NNE,15,2.0,11.0,99,0.00,,,-99.99,,2013-04-13 04:53:00,
2013-04-13 01:03:00,51.0,49.0,-100.00,NE,40,4.0,11.0,90,0.00,,,-99.99,,2013-04-13 05:03:00,
2013-04-13 01:12:00,52.0,45.0,-100.00,West,275,1.0,9.0,80,0.00,,,-99.99,,2013-04-13 05:12:00,
2013-04-13 01:22:00,52.0,45.0,-100.00,West,275,1.0,9.0,80,0.00,,,-99.99,,2013-04-13 05:22:00,
2013-04-13 01:32:00,51.0,43.0,-100.00,WSW,245,2.0,9.0,74,0.00,,,-99.99,,2013-04-13 05:32:00,
2013-04-13 01:43:00,51.0,42.0,-100.00,WNW,295,1.0,6.0,72,0.00,,,-99.99,,2013-04-13 05:43:00,
2013-04-13 01:52:00,51.0,42.0,-100.00,WNW,295,1.0,6.0,72,0.00,,,-99.99,,2013-04-13 05:52:00,
2013-04-13 02:02:00,51.0,41.0,-100.00,ENE,75,2.0,7.0,68,0.00,,,-99.99,,2013-04-13 06:02:00,
2013-04-13 02:12:00,49.0,40.0,-100.00,ENE,75,1.0,6.0,69,0.00,,,-99.99,,2013-04-13 06:12:00,
2013-04-13 02:24:00,49.0,40.0,-100.00,ENE,75,1.0,6.0,69,0.00,,,-99.99,,2013-04-13 06:24:00,
2013-04-13 02:35:00,51.0,39.0,-100.00,NNE,30,1.0,11.0,64,0.00,,,-99.99,,2013-04-13 06:35:00,
2013-04-13 02:49:00,51.0,38.0,-100.00,North,355,1.0,10.0,61,0.00,,,-99.99,,2013-04-13 06:49:00,
2013-04-13 03:15:00,50.0,38.0,-100.00,West,275,1.0,4.0,63,0.00,,,-99.99,,2013-04-13 07:15:00,
2013-04-13 03:24:00,50.0,38.0,-100.00,West,275,1.0,4.0,63,0.00,,,-99.99,,2013-04-13 07:24:00,
2013-04-13 03:35:00,48.0,38.0,-100.00,NNE,15,0.0,1.0,68,0.00,,,-99.99,,2013-04-13 07:35:00,
2013-04-13 03:45:00,48.0,38.0,-100.00,ENE,75,0.0,12.0,70,0.00,,,-99.99,,2013-04-13 07:45:00,
2013-04-13 03:54:00,48.0,38.0,-100.00,ENE,75,0.0,12.0,70,0.00,,,-99.99,,2013-04-13 07:54:00,
2013-04-13 04:07:00,48.0,38.0,-100.00,NNE,30,0.0,6.0,70,0.00,,,-99.99,,2013-04-13 08:07:00,
2013-04-13 04:16:00,48.0,39.0,-100.00,ESE,115,1.0,4.0,72,0.00,,,-99.99,,2013-04-13 08:16:00,
2013-04-13 04:25:00,48.0,39.0,-100.00,ESE,115,1.0,4.0,72,0.00,,,-99.99,,2013-04-13 08:25:00,
2013-04-13 04:46:00,49.0,41.0,-100.00,SW,215,0.0,3.0,76,0.00,,,-99.99,,2013-04-13 08:46:00,
2013-04-13 04:55:00,49.0,41.0,-100.00,SW,215,0.0,3.0,76,0.00,,,-99.99,,2013-04-13 08:55:00,
2013-04-13 05:05:00,48.0,42.0,-100.00,East,80,3.0,6.0,80,0.00,,,-99.99,,2013-04-13 09:05:00,
2013-04-13 05:14:00,48.0,42.0,-100.00,ENE,60,1.0,4.0,81,0.00,,,-99.99,,2013-04-13 09:14:00,
2013-04-13 05:24:00,48.0,42.0,-100.00,ENE,60,1.0,4.0,81,0.00,,,-99.99,,2013-04-13 09:24:00,
2013-04-13 05:37:00,47.0,43.0,-100.00,NE,50,1.0,6.0,84,0.00,,,-99.99,,2013-04-13 09:37:00,
2013-04-13 05:54:00,47.0,42.0,-100.00,WNW,295,1.0,5.0,84,0.00,,,-99.99,,2013-04-13 09:54:00,
2013-04-13 06:05:00,46.0,43.0,-100.00,ENE,70,2.0,3.0,89,0.00,,,-99.99,,2013-04-13 10:05:00,
2013-04-13 06:15:00,46.0,43.0,-100.00,South,185,1.0,6.0,90,0.00,,,-99.99,,2013-04-13 10:15:00,
2013-04-13 06:24:00,46.0,43.0,-100.00,South,185,1.0,6.0,90,0.00,,,-99.99,,2013-04-13 10:24:00,
2013-04-13 06:37:00,46.0,44.0,-100.00,West,260,0.0,4.0,92,0.00,,,-99.99,,2013-04-13 10:37:00,
2013-04-13 06:46:00,47.0,44.0,-100.00,WNW,300,1.0,4.0,92,0.00,,,-99.99,,2013-04-13 10:46:00,
2013-04-13 06:54:00,47.0,44.0,-100.00,WNW,300,1.0,4.0,92,0.00,,,-99.99,,2013-04-13 10:54:00,
2013-04-13 07:13:00,47.0,43.0,-100.00,West,270,2.0,9.0,84,0.00,,,-99.99,,2013-04-13 11:13:00,
2013-04-13 07:24:00,47.0,43.0,-100.00,West,270,2.0,9.0,84,0.00,,,-99.99,,2013-04-13 11:24:00,
2013-04-13 07:34:00,47.0,42.0,-100.00,SW,220,0.0,7.0,82,0.00,,,-99.99,,2013-04-13 11:34:00,
2013-04-13 07:44:00,49.0,42.0,-100.00,NNW,335,2.0,5.0,77,0.00,,,-99.99,,2013-04-13 11:44:00,
2013-04-13 07:53:00,49.0,42.0,-100.00,NNW,335,2.0,5.0,77,0.00,,,-99.99,,2013-04-13 11:53:00,
2013-04-13 08:08:00,51.0,41.0,-100.00,NNE,25,4.0,11.0,69,0.00,,,-99.99,,2013-04-13 12:08:00,
2013-04-13 08:15:00,52.0,40.0,-100.00,West,275,4.0,13.0,63,0.00,,,-99.99,,2013-04-13 12:15:00,
2013-04-13 08:36:00,53.0,40.0,-100.00,NW,315,4.0,7.0,62,0.00,,,-99.99,,2013-04-13 12:36:00,
2013-04-13 08:47:00,53.0,38.0,-100.00,West,270,6.0,16.0,57,0.00,,,-99.99,,2013-04-13 12:47:00,
2013-04-13 08:54:00,53.0,38.0,-100.00,West,270,6.0,16.0,57,0.00,,,-99.99,,2013-04-13 12:54:00,
2013-04-13 09:07:00,53.0,38.0,-100.00,West,270,5.0,12.0,57,0.00,,,-99.99,,2013-04-13 13:07:00,
2013-04-13 09:16:00,54.0,39.0,-100.00,West,260,6.0,14.0,57,0.00,,,-99.99,,2013-04-13 13:16:00,
2013-04-13 09:29:00,54.0,39.0,-100.00,West,260,6.0,14.0,57,0.00,,,-99.99,,2013-04-13 13:29:00,
2013-04-13 09:35:00,54.0,38.0,-100.00,NW,310,6.0,11.0,55,0.00,,,-99.99,,2013-04-13 13:35:00,
2013-04-13 09:47:00,54.0,38.0,-100.00,West,280,5.0,11.0,56,0.00,,,-99.99,,2013-04-13 13:47:00,
2013-04-13 09:54:00,54.0,38.0,-100.00,West,280,5.0,11.0,56,0.00,,,-99.99,,2013-04-13 13:54:00,
2013-04-13 10:05:00,54.0,37.0,-100.00,WSW,255,6.0,16.0,54,0.00,,,-99.99,,2013-04-13 14:05:00,
2013-04-13 10:14:00,54.0,36.0,-100.00,NNE,20,6.0,14.0,51,0.00,,,-99.99,,2013-04-13 14:14:00,
2013-04-13 10:23:00,54.0,36.0,-100.00,NNE,20,6.0,14.0,51,0.00,,,-99.99,,2013-04-13 14:23:00,
2013-04-13 10:39:00,54.0,36.0,-100.00,WNW,290,5.0,14.0,51,0.00,,,-99.99,,2013-04-13 14:39:00,
2013-04-13 10:46:00,54.0,36.0,-100.00,West,270,6.0,12.0,49,0.00,,,-99.99,,2013-04-13 14:46:00,
2013-04-13 10:55:00,54.0,36.0,-100.00,West,270,6.0,12.0,49,0.00,,,-99.99,,2013-04-13 14:55:00,
2013-04-13 11:05:00,56.0,36.0,-100.00,NNW,335,6.0,12.0,47,0.00,,,-99.99,,2013-04-13 15:05:00,
2013-04-13 11:15:00,56.0,35.0,-100.00,NNW,335,6.0,14.0,47,0.00,,,-99.99,,2013-04-13 15:15:00,
2013-04-13 11:29:00,56.0,35.0,-100.00,NNW,335,6.0,14.0,47,0.00,,,-99.99,,2013-04-13 15:29:00,
2013-04-13 11:37:00,55.0,35.0,-100.00,NW,310,4.0,12.0,46,0.00,,,-99.99,,2013-04-13 15:37:00,
2013-04-13 11:44:00,57.0,36.0,-100.00,WSW,240,4.0,13.0,46,0.00,,,-99.99,,2013-04-13 15:44:00,
2013-04-13 11:55:00,57.0,36.0,-100.00,WSW,240,4.0,13.0,46,0.00,,,-99.99,,2013-04-13 15:55:00,
2013-04-13 12:08:00,61.0,39.0,-100.00,West,260,3.0,8.0,45,0.00,,,-99.99,,2013-04-13 16:08:00,
2013-04-13 12:24:00,59.0,36.0,-100.00,West,275,3.0,16.0,43,0.00,,,-99.99,,2013-04-13 16:24:00,
2013-04-13 12:36:00,59.0,36.0,-100.00,West,270,7.0,20.0,43,0.00,,,-99.99,,2013-04-13 16:36:00,
2013-04-13 12:54:00,60.0,36.0,-100.00,West,280,9.0,14.0,42,0.00,,,-99.99,,2013-04-13 16:54:00,
2013-04-13 13:08:00,59.0,36.0,-100.00,NW,310,10.0,19.0,42,0.00,,,-99.99,,2013-04-13 17:08:00,
2013-04-13 13:20:00,60.0,36.0,-100.00,West,280,7.0,19.0,41,0.00,,,-99.99,,2013-04-13 17:20:00,
2013-04-13 13:38:00,60.0,36.0,-100.00,WNW,290,6.0,20.0,40,0.00,,,-99.99,,2013-04-13 17:38:00,
2013-04-13 13:44:00,62.0,38.0,-100.00,WSW,245,3.0,17.0,40,0.00,,,-99.99,,2013-04-13 17:44:00,
2013-04-13 14:04:00,62.0,38.0,-100.00,WSW,245,3.0,17.0,40,0.00,,,-99.99,,2013-04-13 18:04:00,
2013-04-13 14:15:00,62.0,37.0,-100.00,WNW,300,8.0,18.0,40,0.00,,,-99.99,,2013-04-13 18:15:00,
2013-04-13 14:24:00,62.0,37.0,-100.00,WNW,300,8.0,18.0,40,0.00,,,-99.99,,2013-04-13 18:24:00,
2013-04-13 14:33:00,63.0,37.0,-100.00,WSW,255,7.0,17.0,39,0.00,,,-99.99,,2013-04-13 18:33:00,
2013-04-13 14:42:00,64.0,39.0,-100.00,West,260,6.0,17.0,40,0.00,,,-99.99,,2013-04-13 18:42:00,
2013-04-13 14:52:00,64.0,39.0,-100.00,West,260,6.0,17.0,40,0.00,,,-99.99,,2013-04-13 18:52:00,
2013-04-13 15:03:00,63.0,38.0,-100.00,WSW,245,7.0,21.0,39,0.00,,,-99.99,,2013-04-13 19:03:00,
2013-04-13 15:12:00,65.0,39.0,-100.00,WSW,255,5.0,16.0,39,0.00,,,-99.99,,2013-04-13 19:12:00,
2013-04-13 15:22:00,65.0,39.0,-100.00,WSW,255,5.0,16.0,39,0.00,,,-99.99,,2013-04-13 19:22:00,
2013-04-13 15:32:00,65.0,39.0,-100.00,NW,305,6.0,14.0,38,0.00,,,-99.99,,2013-04-13 19:32:00,
2013-04-13 15:42:00,66.0,39.0,-100.00,SW,230,3.0,13.0,37,0.00,,,-99.99,,2013-04-13 19:42:00,
2013-04-13 15:52:00,66.0,39.0,-100.00,SW,230,3.0,13.0,37,0.00,,,-99.99,,2013-04-13 19:52:00,
2013-04-13 16:02:00,66.0,39.0,-100.00,West,260,4.0,14.0,37,0.00,,,-99.99,,2013-04-13 20:02:00,
2013-04-13 16:12:00,66.0,38.0,-100.00,NW,310,9.0,19.0,36,0.00,,,-99.99,,2013-04-13 20:12:00,
2013-04-13 16:22:00,66.0,38.0,-100.00,NW,310,9.0,19.0,36,0.00,,,-99.99,,2013-04-13 20:22:00,
2013-04-13 16:32:00,67.0,38.0,-100.00,WNW,285,8.0,18.0,36,0.00,,,-99.99,,2013-04-13 20:32:00,
2013-04-13 16:42:00,67.0,39.0,-100.00,NW,305,5.0,11.0,36,0.00,,,-99.99,,2013-04-13 20:42:00,
2013-04-13 16:53:00,67.0,39.0,-100.00,NW,305,5.0,11.0,36,0.00,,,-99.99,,2013-04-13 20:53:00,
2013-04-13 17:02:00,67.0,38.0,-100.00,WNW,295,10.0,16.0,35,0.00,,,-99.99,,2013-04-13 21:02:00,
2013-04-13 17:12:00,68.0,39.0,-100.00,WSW,240,3.0,9.0,35,0.00,,,-99.99,,2013-04-13 21:12:00,
2013-04-13 17:22:00,68.0,39.0,-100.00,WSW,240,3.0,9.0,35,0.00,,,-99.99,,2013-04-13 21:22:00,
2013-04-13 17:33:00,68.0,38.0,-100.00,NW,310,6.0,11.0,34,0.00,,,-99.99,,2013-04-13 21:33:00,
2013-04-13 17:43:00,68.0,39.0,-100.00,NW,310,6.0,16.0,34,0.00,,,-99.99,,2013-04-13 21:43:00,
2013-04-13 17:53:00,68.0,39.0,-100.00,NW,310,6.0,16.0,34,0.00,,,-99.99,,2013-04-13 21:53:00,
2013-04-13 18:03:00,68.0,38.0,-100.00,WSW,240,3.0,12.0,34,0.00,,,-99.99,,2013-04-13 22:03:00,
2013-04-13 18:13:00,69.0,38.0,-100.00,West,280,6.0,13.0,33,0.00,,,-99.99,,2013-04-13 22:13:00,
2013-04-13 18:22:00,69.0,38.0,-100.00,West,280,6.0,13.0,33,0.00,,,-99.99,,2013-04-13 22:22:00,
2013-04-13 18:33:00,69.0,37.0,-100.00,SW,225,1.0,8.0,32,0.00,,,-99.99,,2013-04-13 22:33:00,
2013-04-13 18:42:00,69.0,37.0,-100.00,West,280,6.0,9.0,32,0.00,,,-99.99,,2013-04-13 22:42:00,
2013-04-13 18:52:00,69.0,37.0,-100.00,West,280,6.0,9.0,32,0.00,,,-99.99,,2013-04-13 22:52:00,
2013-04-13 19:02:00,69.0,37.0,-100.00,West,280,6.0,9.0,32,0.00,,,-99.99,,2013-04-13 23:02:00,
2013-04-13 19:12:00,69.0,39.0,-100.00,SSW,210,1.0,6.0,34,0.00,,,-99.99,,2013-04-13 23:12:00,
2013-04-13 19:22:00,69.0,39.0,-100.00,SSW,210,1.0,6.0,34,0.00,,,-99.99,,2013-04-13 23:22:00,
2013-04-13 19:33:00,68.0,38.0,-100.00,West,260,1.0,6.0,34,0.00,,,-99.99,,2013-04-13 23:33:00,
2013-04-13 19:53:00,67.0,39.0,-100.00,SW,225,1.0,6.0,37,0.00,,,-99.99,,2013-04-13 23:53:00,
2013-04-13 20:03:00,65.0,38.0,-100.00,West,270,1.0,5.0,36,0.00,,,-99.99,,2013-04-14 00:03:00,
2013-04-13 20:12:00,64.0,37.0,-100.00,West,265,0.0,4.0,37,0.00,,,-99.99,,2013-04-14 00:12:00,
2013-04-13 20:22:00,64.0,37.0,-100.00,West,265,0.0,4.0,37,0.00,,,-99.99,,2013-04-14 00:22:00,
2013-04-13 20:32:00,60.0,36.0,-100.00,SSW,210,0.0,1.0,42,0.00,,,-99.99,,2013-04-14 00:32:00,
2013-04-13 20:42:00,60.0,38.0,-100.00,WNW,295,1.0,4.0,45,0.00,,,-99.99,,2013-04-14 00:42:00,
2013-04-13 20:52:00,60.0,38.0,-100.00,WNW,295,1.0,4.0,45,0.00,,,-99.99,,2013-04-14 00:52:00,
2013-04-13 21:02:00,58.0,40.0,-100.00,WNW,285,2.0,5.0,51,0.00,,,-99.99,,2013-04-14 01:02:00,
2013-04-13 21:12:00,56.0,42.0,-100.00,SW,220,0.0,5.0,58,0.00,,,-99.99,,2013-04-14 01:12:00,
2013-04-13 21:22:00,56.0,42.0,-100.00,SW,220,0.0,5.0,58,0.00,,,-99.99,,2013-04-14 01:22:00,
2013-04-13 21:32:00,56.0,43.0,-100.00,North,355,1.0,4.0,61,0.00,,,-99.99,,2013-04-14 01:32:00,
2013-04-13 21:42:00,55.0,42.0,-100.00,South,180,0.0,4.0,63,0.00,,,-99.99,,2013-04-14 01:42:00,
2013-04-13 21:52:00,55.0,42.0,-100.00,South,180,0.0,4.0,63,0.00,,,-99.99,,2013-04-14 01:52:00,
2013-04-13 22:02:00,54.0,42.0,-100.00,WNW,285,1.0,4.0,66,0.00,,,-99.99,,2013-04-14 02:02:00,
2013-04-13 22:12:00,53.0,42.0,-100.00,WSW,255,0.0,3.0,69,0.00,,,-99.99,,2013-04-14 02:12:00,
2013-04-13 22:22:00,53.0,42.0,-100.00,WSW,255,0.0,3.0,69,0.00,,,-99.99,,2013-04-14 02:22:00,
2013-04-13 22:32:00,53.0,43.0,-100.00,ENE,65,1.0,4.0,70,0.00,,,-99.99,,2013-04-14 02:32:00,
2013-04-13 22:42:00,53.0,43.0,-100.00,East,85,3.0,5.0,71,0.00,,,-99.99,,2013-04-14 02:42:00,
2013-04-13 22:52:00,53.0,43.0,-100.00,East,85,3.0,5.0,71,0.00,,,-99.99,,2013-04-14 02:52:00,
2013-04-13 23:03:00,52.0,42.0,-100.00,NW,325,4.0,8.0,68,0.00,,,-99.99,,2013-04-14 03:03:00,
2013-04-13 23:12:00,54.0,41.0,-100.00,NE,55,4.0,9.0,62,0.00,,,-99.99,,2013-04-14 03:12:00,
2013-04-13 23:22:00,54.0,41.0,-100.00,NE,55,4.0,9.0,62,0.00,,,-99.99,,2013-04-14 03:22:00,
2013-04-13 23:33:00,53.0,41.0,-100.00,WNW,300,0.0,6.0,64,0.00,,,-99.99,,2013-04-14 03:33:00,
2013-04-13 23:42:00,52.0,41.0,-100.00,North,355,1.0,6.0,65,0.00,,,-99.99,,2013-04-14 03:42:00,
2013-04-13 23:53:00,52.0,41.0,-100.00,North,355,1.0,6.0,65,0.00,,,-99.99,,2013-04-14 03:53:00,